createdAt,value
2022-09-25T00:02:15.333Z,6.93
2022-09-25T00:04:45.843Z,6.37
2022-09-25T00:07:16.857Z,6.63
2022-09-25T00:09:46.014Z,8.17
2022-09-25T00:12:15.232Z,6.07
2022-09-25T00:14:44.391Z,7.00
2022-09-25T00:17:13.467Z,5.93
2022-09-25T00:19:50.972Z,7.13
2022-09-25T00:22:27.725Z,6.77
2022-09-25T00:24:58.721Z,7.43
2022-09-25T00:27:27.453Z,8.77
2022-09-25T00:29:58.415Z,7.67
2022-09-25T00:32:31.740Z,9.23
2022-09-25T00:35:02.850Z,8.60
2022-09-25T00:37:34.923Z,9.70
2022-09-25T00:40:03.734Z,10.03
2022-09-25T00:42:35.526Z,10.47
2022-09-25T00:45:04.767Z,13.90
2022-09-25T00:47:54.635Z,12.43
2022-09-25T00:50:32.217Z,12.97
2022-09-25T00:53:11.921Z,14.10
2022-09-25T00:55:45.173Z,16.97
2022-09-25T00:58:20.780Z,20.67
2022-09-25T01:00:56.402Z,17.60
2022-09-25T01:03:30.582Z,20.77
2022-09-25T01:06:01.734Z,20.77
2022-09-25T01:08:35.365Z,20.17
2022-09-25T01:11:06.472Z,17.50
2022-09-25T01:13:34.948Z,18.77
2022-09-25T01:16:17.241Z,17.87
2022-09-25T01:19:03.262Z,19.33
2022-09-25T01:21:40.844Z,17.30
2022-09-25T01:24:41.677Z,20.13
2022-09-25T01:27:34.236Z,19.77
2022-09-25T01:30:17.980Z,20.13
2022-09-25T01:33:04.419Z,22.97
2022-09-25T01:35:43.521Z,21.90
2022-09-25T01:38:23.182Z,21.93
2022-09-25T01:40:59.513Z,20.13
2022-09-25T01:43:37.568Z,22.80
2022-09-25T01:46:18.250Z,25.97
2022-09-25T01:48:49.668Z,21.40
2022-09-25T01:51:28.777Z,23.23
2022-09-25T01:54:01.521Z,23.33
2022-09-25T01:56:33.908Z,20.47
2022-09-25T01:59:08.243Z,21.13
2022-09-25T02:01:46.068Z,21.23
2022-09-25T02:04:23.608Z,22.93
2022-09-25T02:07:01.637Z,21.70
2022-09-25T02:09:38.350Z,19.93
2022-09-25T02:12:18.511Z,20.03
2022-09-25T02:14:56.448Z,20.37
2022-09-25T02:17:51.108Z,17.87
2022-09-25T02:20:34.777Z,17.30
2022-09-25T02:23:17.164Z,13.60
2022-09-25T02:26:00.963Z,15.40
2022-09-25T02:28:29.035Z,15.53
2022-09-25T02:31:00.181Z,15.23
2022-09-25T02:33:30.961Z,13.73
2022-09-25T02:36:10.122Z,13.40
2022-09-25T02:38:38.171Z,12.70
2022-09-25T02:41:21.338Z,12.43
2022-09-25T02:44:01.960Z,15.13
2022-09-25T02:46:43.177Z,11.27
2022-09-25T02:49:21.765Z,11.93
2022-09-25T02:51:58.109Z,10.43
2022-09-25T02:54:32.419Z,15.97
2022-09-25T02:57:11.544Z,13.30
2022-09-25T02:59:43.862Z,11.03
2022-09-25T03:02:16.942Z,16.70
2022-09-25T03:04:50.406Z,12.40
2022-09-25T03:07:22.491Z,12.70
2022-09-25T03:09:52.190Z,12.67
2022-09-25T03:12:22.701Z,12.07
2022-09-25T03:14:50.714Z,10.73
2022-09-25T03:17:23.098Z,12.20
2022-09-25T03:19:52.523Z,8.17
2022-09-25T03:22:26.637Z,10.17
2022-09-25T03:25:01.241Z,9.30
2022-09-25T03:27:31.599Z,7.03
2022-09-25T03:30:00.197Z,10.67
2022-09-25T03:32:28.250Z,6.30
2022-09-25T03:34:59.279Z,6.90
2022-09-25T03:37:27.329Z,9.37
2022-09-25T03:39:55.416Z,8.30
2022-09-25T03:42:23.975Z,8.43
2022-09-25T03:44:56.720Z,7.33
2022-09-25T03:47:27.490Z,6.37
2022-09-25T03:50:02.057Z,5.17
2022-09-25T03:52:31.980Z,4.47
2022-09-25T03:55:02.410Z,4.90
2022-09-25T03:57:43.754Z,3.97
2022-09-25T04:00:16.869Z,5.00
2022-09-25T04:03:03.661Z,4.37
2022-09-25T04:05:33.167Z,4.10
2022-09-25T04:08:06.909Z,8.77
2022-09-25T04:10:38.716Z,7.73
2022-09-25T04:13:12.907Z,5.43
2022-09-25T04:15:45.072Z,4.40
2022-09-25T04:18:13.155Z,8.20
2022-09-25T04:20:44.268Z,7.00
2022-09-25T04:23:12.423Z,5.93
2022-09-25T04:25:40.478Z,8.43
2022-09-25T04:28:13.298Z,4.67
2022-09-25T04:30:41.806Z,4.70
2022-09-25T04:33:35.044Z,8.40
2022-09-25T04:36:05.615Z,7.93
2022-09-25T04:38:34.252Z,9.20
2022-09-25T04:41:02.583Z,5.27
2022-09-25T04:43:39.601Z,6.80
2022-09-25T04:46:09.612Z,5.10
2022-09-25T04:48:43.214Z,6.50
2022-09-25T04:51:20.422Z,8.30
2022-09-25T04:53:50.703Z,6.97
2022-09-25T04:56:21.667Z,9.03
2022-09-25T04:58:50.970Z,9.93
2022-09-25T05:01:24.275Z,6.00
2022-09-25T05:04:00.552Z,8.83
2022-09-25T05:06:34.110Z,5.03
2022-09-25T05:09:03.634Z,5.33
2022-09-25T05:11:31.771Z,7.23
2022-09-25T05:14:03.976Z,5.50
2022-09-25T05:16:45.719Z,4.97
2022-09-25T05:19:16.433Z,6.17
2022-09-25T05:21:49.203Z,6.23
2022-09-25T05:24:20.069Z,6.97
2022-09-25T05:26:50.501Z,10.27
2022-09-25T05:29:20.962Z,6.33
2022-09-25T05:31:57.202Z,5.70
2022-09-25T05:34:25.283Z,7.73
2022-09-25T05:36:59.591Z,6.47
2022-09-25T05:39:33.575Z,6.83
2022-09-25T05:42:07.027Z,6.77
2022-09-25T05:44:39.981Z,5.43
2022-09-25T05:47:10.419Z,9.10
2022-09-25T05:49:38.469Z,7.37
2022-09-25T05:52:07.917Z,3.43
2022-09-25T05:54:39.557Z,5.33
2022-09-25T05:57:09.522Z,4.83
2022-09-25T05:59:37.744Z,5.07
2022-09-25T06:02:06.228Z,3.90
2022-09-25T06:04:34.438Z,2.07
2022-09-25T06:07:08.144Z,7.17
2022-09-25T06:09:39.707Z,5.13
2022-09-25T06:12:10.584Z,6.47
2022-09-25T06:14:38.751Z,3.23
2022-09-25T06:17:07.455Z,6.23
2022-09-25T06:19:49.283Z,5.07
2022-09-25T06:22:32.085Z,3.73
2022-09-25T06:25:06.077Z,4.60
2022-09-25T06:27:37.832Z,9.17
2022-09-25T06:30:09.626Z,8.00
2022-09-25T06:32:38.157Z,4.43
2022-09-25T06:35:11.962Z,5.10
2022-09-25T06:37:40.012Z,7.97
2022-09-25T06:40:12.607Z,5.83
2022-09-25T06:42:43.110Z,3.43
2022-09-25T06:45:16.037Z,3.47
2022-09-25T06:47:48.952Z,5.70
2022-09-25T06:50:17.062Z,7.27
2022-09-25T06:52:45.398Z,5.60
2022-09-25T06:55:15.199Z,5.87
2022-09-25T06:57:49.787Z,4.73
2022-09-25T07:00:23.142Z,6.33
2022-09-25T07:03:10.892Z,2.53
2022-09-25T07:05:44.794Z,4.10
2022-09-25T07:08:19.788Z,6.53
2022-09-25T07:10:56.310Z,6.60
2022-09-25T07:13:30.224Z,5.83
2022-09-25T07:16:00.237Z,5.40
2022-09-25T07:18:31.907Z,7.27
2022-09-25T07:21:05.852Z,6.97
2022-09-25T07:23:36.767Z,4.87
2022-09-25T07:26:13.033Z,7.10
2022-09-25T07:28:42.587Z,7.50
2022-09-25T07:31:22.582Z,7.30
2022-09-25T07:33:51.083Z,4.37
2022-09-25T07:36:24.631Z,7.70
2022-09-25T07:38:55.887Z,2.17
2022-09-25T07:41:25.415Z,5.00
2022-09-25T07:46:49.074Z,7.80
2022-09-25T07:49:17.177Z,8.30
2022-09-25T07:51:51.137Z,4.70
2022-09-25T07:54:19.206Z,5.20
2022-09-25T07:56:49.821Z,7.30
2022-09-25T07:59:18.038Z,6.37
2022-09-25T08:01:53.631Z,5.53
2022-09-25T08:04:26.017Z,5.60
2022-09-25T08:06:56.968Z,5.63
2022-09-25T08:09:28.500Z,7.00
2022-09-25T08:12:02.376Z,5.87
2022-09-25T08:14:30.516Z,7.90
2022-09-25T08:17:01.000Z,5.70
2022-09-25T08:19:29.060Z,5.60
2022-09-25T08:21:59.908Z,3.70
2022-09-25T08:24:29.321Z,5.93
2022-09-25T08:27:02.064Z,5.93
2022-09-25T08:29:33.535Z,8.63
2022-09-25T08:32:06.426Z,5.10
2022-09-25T08:34:41.178Z,2.97
2022-09-25T08:37:11.777Z,5.10
2022-09-25T08:39:42.387Z,4.07
2022-09-25T08:42:22.325Z,4.80
2022-09-25T08:45:21.123Z,7.03
2022-09-25T08:48:09.725Z,4.77
2022-09-25T08:50:38.714Z,4.13
2022-09-25T08:53:09.778Z,2.87
2022-09-25T08:56:00.014Z,5.43
2022-09-25T08:58:36.926Z,3.77
2022-09-25T09:01:11.934Z,7.70
2022-09-25T09:03:51.470Z,4.23
2022-09-25T09:06:29.048Z,8.47
2022-09-25T09:09:01.722Z,7.13
2022-09-25T09:11:37.225Z,7.27
2022-09-25T09:14:16.438Z,1.80
2022-09-25T09:16:49.712Z,9.20
2022-09-25T09:19:18.055Z,4.63
2022-09-25T09:21:53.175Z,6.43
2022-09-25T09:24:32.523Z,6.07
2022-09-25T09:27:15.718Z,3.77
2022-09-25T09:30:09.342Z,2.67
2022-09-25T09:32:55.106Z,3.00
2022-09-25T09:35:34.044Z,2.03
2022-09-25T09:38:14.999Z,4.47
2022-09-25T09:41:02.421Z,4.53
2022-09-25T09:43:48.234Z,2.30
2022-09-25T09:46:26.836Z,2.23
2022-09-25T09:49:06.501Z,6.43
2022-09-25T09:51:40.349Z,3.80
2022-09-25T09:54:13.676Z,1.20
2022-09-25T09:56:45.828Z,2.50
2022-09-25T09:59:23.749Z,2.80
2022-09-25T10:02:03.152Z,4.07
2022-09-25T10:04:39.116Z,4.07
2022-09-25T10:07:19.090Z,3.20
2022-09-25T10:09:51.537Z,2.73
2022-09-25T10:12:32.176Z,3.57
2022-09-25T10:15:06.240Z,1.87
2022-09-25T10:17:39.146Z,2.20
2022-09-25T10:20:18.400Z,2.97
2022-09-25T10:22:52.060Z,5.63
2022-09-25T10:25:38.353Z,2.43
2022-09-25T10:28:30.298Z,2.30
2022-09-25T10:31:03.935Z,2.27
2022-09-25T10:33:41.889Z,1.37
2022-09-25T10:36:14.803Z,1.07
2022-09-25T10:38:52.386Z,3.70
2022-09-25T10:41:27.077Z,0.97
2022-09-25T10:43:56.668Z,1.13
2022-09-25T10:46:56.053Z,1.90
2022-09-25T10:49:44.933Z,2.87
2022-09-25T10:52:17.954Z,2.27
2022-09-25T10:54:51.025Z,2.33
2022-09-25T10:57:34.860Z,2.00
2022-09-25T11:00:05.686Z,1.00
2022-09-25T11:02:39.100Z,1.83
2022-09-25T11:05:16.777Z,1.57
2022-09-25T11:07:55.448Z,1.20
2022-09-25T11:10:27.682Z,1.80
2022-09-25T11:12:56.800Z,2.57
2022-09-25T11:15:28.431Z,1.60
2022-09-25T11:18:00.201Z,2.50
2022-09-25T11:20:33.356Z,0.90
2022-09-25T11:23:16.906Z,2.30
2022-09-25T11:25:50.005Z,1.30
2022-09-25T11:28:28.015Z,1.47
2022-09-25T11:31:03.977Z,4.70
2022-09-25T11:33:45.669Z,0.70
2022-09-25T11:36:20.181Z,1.70
2022-09-25T11:39:08.438Z,5.70
2022-09-25T11:41:45.360Z,1.80
2022-09-25T11:44:31.743Z,5.13
2022-09-25T11:47:15.941Z,1.80
2022-09-25T11:49:53.328Z,3.43
2022-09-25T11:52:32.555Z,1.43
2022-09-25T11:55:43.432Z,1.67
2022-09-25T11:58:26.491Z,3.40
2022-09-25T12:01:11.164Z,0.90
2022-09-25T12:03:54.556Z,2.37
2022-09-25T12:06:53.584Z,2.07
2022-09-25T12:09:52.149Z,2.50
2022-09-25T12:12:37.558Z,1.53
2022-09-25T12:15:20.391Z,3.87
2022-09-25T12:17:58.876Z,2.13
2022-09-25T12:20:39.203Z,2.90
2022-09-25T12:23:20.396Z,2.50
2022-09-25T12:26:04.712Z,2.77
2022-09-25T12:28:41.630Z,1.20
2022-09-25T12:31:19.357Z,1.83
2022-09-25T12:34:01.207Z,1.67
2022-09-25T12:36:37.817Z,1.43
2022-09-25T12:39:21.545Z,2.53
2022-09-25T12:41:57.694Z,4.00
2022-09-25T12:44:37.457Z,1.10
2022-09-25T12:47:11.176Z,3.97
2022-09-25T12:49:48.301Z,4.07
2022-09-25T12:52:22.305Z,1.50
2022-09-25T12:54:56.016Z,1.30
2022-09-25T12:57:30.200Z,1.27
2022-09-25T13:00:03.597Z,3.00
2022-09-25T13:02:42.808Z,0.90
2022-09-25T13:05:21.830Z,2.23
2022-09-25T13:07:55.309Z,1.73
2022-09-25T13:10:28.528Z,1.20
2022-09-25T13:13:02.805Z,1.03
2022-09-25T13:15:37.343Z,1.13
2022-09-25T13:18:14.296Z,1.13
2022-09-25T13:20:48.877Z,2.20
2022-09-25T13:23:24.917Z,1.40
2022-09-25T13:25:58.175Z,2.40
2022-09-25T13:28:33.993Z,1.90
2022-09-25T13:31:09.684Z,2.67
2022-09-25T13:33:51.429Z,1.70
2022-09-25T13:36:43.888Z,1.60
2022-09-25T13:39:45.624Z,1.43
2022-09-25T13:42:22.128Z,1.70
2022-09-25T13:44:59.094Z,2.93
2022-09-25T13:48:07.279Z,5.30
2022-09-25T13:50:43.928Z,0.43
2022-09-25T13:53:49.822Z,1.63
2022-09-25T13:56:23.995Z,2.63
2022-09-25T13:59:28.931Z,1.90
2022-09-25T14:02:25.195Z,2.27
2022-09-25T14:04:56.230Z,0.97
2022-09-25T14:07:29.611Z,0.87
2022-09-25T14:10:00.812Z,1.13
2022-09-25T14:12:42.950Z,0.93
2022-09-25T14:15:26.865Z,2.30
2022-09-25T14:17:59.038Z,1.00
2022-09-25T14:20:40.673Z,1.43
2022-09-25T14:23:14.986Z,1.50
2022-09-25T14:25:47.591Z,1.53
2022-09-25T14:28:27.520Z,1.97
2022-09-25T14:31:20.833Z,2.33
2022-09-25T14:34:03.035Z,0.77
2022-09-25T14:36:40.114Z,1.70
2022-09-25T14:39:38.921Z,0.73
2022-09-25T14:42:36.163Z,0.40
2022-09-25T14:45:40.851Z,1.17
2022-09-25T14:48:15.109Z,1.40
2022-09-25T14:50:50.506Z,1.73
2022-09-25T14:53:27.683Z,3.83
2022-09-25T14:55:59.286Z,1.50
2022-09-25T14:58:37.030Z,0.40
2022-09-25T15:01:15.105Z,1.60
2022-09-25T15:03:50.200Z,1.73
2022-09-25T15:06:30.255Z,1.00
2022-09-25T15:08:59.053Z,2.10
2022-09-25T15:11:29.732Z,2.10
2022-09-25T15:14:11.916Z,1.73
2022-09-25T15:17:02.321Z,2.37
2022-09-25T15:19:34.476Z,1.77
2022-09-25T15:22:13.687Z,3.33
2022-09-25T15:24:55.311Z,0.93
2022-09-25T15:27:24.099Z,2.00
2022-09-25T15:29:52.814Z,2.17
2022-09-25T15:32:24.350Z,2.30
2022-09-25T15:35:05.924Z,1.13
2022-09-25T15:37:35.664Z,1.13
2022-09-25T15:40:22.851Z,1.10
2022-09-25T15:42:51.407Z,1.37
2022-09-25T15:45:58.270Z,1.00
2022-09-25T15:48:33.088Z,2.73
2022-09-25T15:51:04.006Z,2.60
2022-09-25T15:53:36.664Z,1.53
2022-09-25T15:56:12.838Z,0.80
2022-09-25T15:58:49.417Z,1.60
2022-09-25T16:01:40.051Z,0.60
2022-09-25T16:04:28.726Z,3.00
2022-09-25T16:06:56.964Z,2.10
2022-09-25T16:09:32.024Z,4.60
2022-09-25T16:12:22.255Z,3.63
2022-09-25T16:14:55.147Z,2.70
2022-09-25T16:17:43.642Z,1.50
2022-09-25T16:20:33.941Z,3.33
2022-09-25T16:23:06.583Z,1.17
2022-09-25T16:25:48.369Z,0.87
2022-09-25T16:28:19.923Z,1.23
2022-09-25T16:30:51.831Z,4.37
2022-09-25T16:33:25.188Z,1.97
2022-09-25T16:36:18.572Z,3.90
2022-09-25T16:38:42.629Z,2.47
2022-09-25T16:41:25.291Z,0.43
2022-09-25T16:44:14.055Z,4.73
2022-09-25T16:46:54.291Z,1.30
2022-09-25T16:50:03.467Z,2.73
2022-09-25T16:52:35.749Z,0.90
2022-09-25T16:55:10.529Z,2.57
2022-09-25T16:57:45.300Z,1.70
2022-09-25T17:00:16.989Z,0.50
2022-09-25T17:02:50.229Z,1.50
2022-09-25T17:05:20.851Z,0.60
2022-09-25T17:07:50.685Z,2.90
2022-09-25T17:10:23.922Z,1.27
2022-09-25T17:13:00.007Z,1.43
2022-09-25T17:15:32.903Z,2.43
2022-09-25T17:18:02.116Z,1.93
2022-09-25T17:20:39.562Z,2.83
2022-09-25T17:23:20.188Z,3.03
2022-09-25T17:25:51.111Z,2.73
2022-09-25T17:28:20.617Z,3.73
2022-09-25T17:30:50.751Z,3.90
2022-09-25T17:33:21.462Z,3.10
2022-09-25T17:35:54.305Z,2.10
2022-09-25T17:38:25.238Z,2.50
2022-09-25T17:41:01.765Z,1.00
2022-09-25T17:43:37.675Z,1.10
2022-09-25T17:46:06.883Z,3.27
2022-09-25T17:48:35.203Z,0.63
2022-09-25T17:51:08.107Z,1.40
2022-09-25T17:53:36.285Z,1.63
2022-09-25T17:56:09.981Z,4.67
2022-09-25T17:58:40.800Z,3.43
2022-09-25T18:01:21.758Z,1.23
2022-09-25T18:03:50.448Z,2.27
2022-09-25T18:06:20.882Z,2.07
2022-09-25T18:08:51.577Z,3.20
2022-09-25T18:11:23.278Z,3.00
2022-09-25T18:14:04.627Z,4.73
2022-09-25T18:16:33.693Z,2.33
2022-09-25T18:19:21.366Z,1.67
2022-09-25T18:22:06.766Z,1.67
2022-09-25T18:24:40.126Z,2.30
2022-09-25T18:27:11.399Z,1.77
2022-09-25T18:29:44.669Z,1.50
2022-09-25T18:32:16.362Z,1.33
2022-09-25T18:34:45.147Z,5.17
2022-09-25T18:37:14.836Z,3.23
2022-09-25T18:39:43.753Z,3.33
2022-09-25T18:42:12.034Z,5.50
2022-09-25T18:44:43.130Z,1.77
2022-09-25T18:47:11.964Z,2.37
2022-09-25T18:49:40.137Z,4.30
2022-09-25T18:52:11.638Z,5.97
2022-09-25T18:54:42.303Z,4.73
2022-09-25T18:57:10.907Z,5.13
2022-09-25T18:59:39.819Z,2.03
2022-09-25T19:02:20.629Z,2.03
2022-09-25T19:04:51.814Z,2.50
2022-09-25T19:07:20.708Z,3.23
2022-09-25T19:09:51.033Z,1.60
2022-09-25T19:12:20.460Z,1.90
2022-09-25T19:14:49.043Z,2.93
2022-09-25T19:17:22.670Z,1.73
2022-09-25T19:19:53.765Z,1.23
2022-09-25T19:22:24.547Z,2.10
2022-09-25T19:24:54.738Z,1.37
2022-09-25T19:27:29.058Z,1.40
2022-09-25T19:29:57.749Z,1.20
2022-09-25T19:32:27.321Z,2.23
2022-09-25T19:34:55.674Z,2.07
2022-09-25T19:37:27.682Z,1.20
2022-09-25T19:40:13.661Z,1.33
2022-09-25T19:42:44.040Z,2.10
2022-09-25T19:45:17.684Z,1.73
2022-09-25T19:47:47.300Z,2.07
2022-09-25T19:50:15.574Z,3.53
2022-09-25T19:52:52.884Z,1.23
2022-09-25T19:55:21.346Z,0.70
2022-09-25T19:57:49.516Z,2.53
2022-09-25T20:00:18.219Z,1.30
2022-09-25T20:02:49.577Z,3.07
2022-09-25T20:05:17.802Z,1.67
2022-09-25T20:07:45.884Z,2.00
2022-09-25T20:10:14.111Z,1.87
2022-09-25T20:12:45.949Z,3.07
2022-09-25T20:15:19.629Z,1.50
2022-09-25T20:17:49.062Z,1.90
2022-09-25T20:20:23.341Z,4.17
2022-09-25T20:22:51.411Z,2.37
2022-09-25T20:25:19.634Z,1.93
2022-09-25T20:27:50.720Z,3.20
2022-09-25T20:30:21.028Z,4.97
2022-09-25T20:32:50.573Z,2.70
2022-09-25T20:35:22.581Z,1.90
2022-09-25T20:37:55.903Z,2.10
2022-09-25T20:40:30.037Z,2.83
2022-09-25T20:42:58.184Z,1.07
2022-09-25T20:45:26.606Z,2.37
2022-09-25T20:48:02.150Z,1.30
2022-09-25T20:50:30.449Z,2.57
2022-09-25T20:53:04.129Z,2.43
2022-09-25T20:55:38.045Z,3.20
2022-09-25T20:58:06.178Z,1.80
2022-09-25T21:00:35.109Z,2.97
2022-09-25T21:03:08.306Z,2.97
2022-09-25T21:05:40.062Z,1.30
2022-09-25T21:08:10.846Z,3.33
2022-09-25T21:10:40.478Z,4.30
2022-09-25T21:13:10.680Z,3.63
2022-09-25T21:15:38.747Z,2.23
2022-09-25T21:18:11.334Z,2.83
2022-09-25T21:20:43.156Z,3.00
2022-09-25T21:23:16.852Z,3.90
2022-09-25T21:25:45.100Z,2.50
2022-09-25T21:28:13.183Z,2.77
2022-09-25T21:30:46.564Z,1.33
2022-09-25T21:33:25.017Z,2.00
2022-09-25T21:35:55.939Z,3.37
2022-09-25T21:38:25.936Z,3.13
2022-09-25T21:41:01.473Z,2.83
2022-09-25T21:43:38.164Z,2.50
2022-09-25T21:46:15.926Z,3.70
2022-09-25T21:48:53.527Z,2.17
2022-09-25T21:51:24.661Z,2.67
2022-09-25T21:54:02.929Z,6.07
2022-09-25T21:56:32.659Z,2.37
2022-09-25T21:59:08.312Z,2.53
2022-09-25T22:01:42.997Z,1.60
2022-09-25T22:04:18.046Z,1.87
2022-09-25T22:06:48.822Z,2.57
2022-09-25T22:09:22.672Z,4.37
2022-09-25T22:11:53.793Z,5.57
2022-09-25T22:14:23.365Z,3.00
2022-09-25T22:17:01.326Z,1.93
2022-09-25T22:19:34.557Z,3.90
2022-09-25T22:22:06.386Z,2.73
2022-09-25T22:24:36.566Z,3.40
2022-09-25T22:27:08.681Z,4.23
2022-09-25T22:29:38.328Z,3.73
2022-09-25T22:32:07.665Z,3.87
2022-09-25T22:34:46.024Z,2.57
2022-09-25T22:37:18.670Z,2.97
2022-09-25T22:39:48.038Z,3.20
2022-09-25T22:42:22.035Z,4.63
2022-09-25T22:44:53.855Z,2.40
2022-09-25T22:47:21.951Z,2.37
2022-09-25T22:49:57.109Z,3.77
2022-09-25T22:52:25.209Z,2.20
2022-09-25T22:54:53.251Z,3.40
2022-09-25T22:57:24.003Z,6.80
2022-09-25T22:59:57.544Z,4.40
2022-09-25T23:02:31.420Z,2.83
2022-09-25T23:05:06.598Z,2.30
2022-09-25T23:07:35.040Z,3.07
2022-09-25T23:10:05.430Z,3.60
2022-09-25T23:12:38.920Z,2.60
2022-09-25T23:15:12.796Z,2.30
2022-09-25T23:17:44.860Z,3.20
2022-09-25T23:20:16.732Z,1.50
2022-09-25T23:22:44.803Z,3.63
2022-09-25T23:25:16.325Z,1.87
2022-09-25T23:27:44.500Z,2.07
2022-09-25T23:30:13.063Z,2.70
2022-09-25T23:32:43.587Z,3.63
2022-09-25T23:35:14.504Z,4.47
2022-09-25T23:37:44.798Z,2.90
2022-09-25T23:40:20.224Z,3.40
2022-09-25T23:42:48.338Z,3.53
2022-09-25T23:45:16.407Z,4.63
2022-09-25T23:47:47.646Z,3.63
2022-09-25T23:50:22.249Z,2.90
2022-09-25T23:52:52.312Z,2.80
2022-09-25T23:55:20.379Z,2.20
2022-09-25T23:57:48.384Z,2.07
